Time;durP1;ratioP1;P1;durP2;ratioP2;P2;SDS_P1;SDS_P2;PMS_P1;PMS_P2;Temp;Humidity;BMP_temperature;BMP_pressure;BME280_temperature;BME280_humidity;BME280_pressure;Samples;Min_cycle;Max_cycle;Signal;HPM_P1;HPM_P2
2022/03/21 00:00:09;;;;;;;;;;;;;;;21.46;33.75;96915.38;10472630;28;1856;-75
2022/03/21 00:05:10;;;;;;;;;;;;;;;21.47;34.03;96913.53;10468943;28;1782;-75
2022/03/21 00:10:10;;;;;;;;;;;;;;;21.46;34.11;96902.19;10471651;28;1965;-75
2022/03/21 00:15:11;;;;;;;;;;;;;;;21.49;33.17;96900.88;10486775;28;1840;-75
2022/03/21 00:20:12;;;;;;;;;;;;;;;21.47;32.99;96916.16;10483840;28;1847;-76
2022/03/21 00:25:12;;;;;;;;;;;;;;;21.46;33.52;96911.94;10487347;28;1814;-75
2022/03/21 00:30:13;;;;;;;;;;;;;;;21.48;33.33;96908.00;10469871;28;1975;-75
2022/03/21 00:35:16;;;;;;;;;;;;;;;21.45;32.70;96910.34;10489460;28;1728;-75
2022/03/21 00:40:17;;;;;;;;;;;;;;;21.46;32.28;96907.44;10488020;28;1863;-75
2022/03/21 00:45:18;;;;;;;;;;;;;;;21.47;32.40;96914.34;10471953;28;1745;-74
2022/03/21 00:50:19;;;;;;;;;;;;;;;21.47;32.36;96929.38;10486147;28;1906;-74
2022/03/21 00:55:19;;;;;;;;;;;;;;;21.43;31.67;96923.75;10484430;28;1797;-72
2022/03/21 01:00:20;;;;;;;;;;;;;;;21.46;31.94;96919.84;10470893;28;1923;-75
2022/03/21 01:05:22;;;;;;;;;;;;;;;21.48;31.76;96925.66;10503744;28;1742;-74
2022/03/21 01:10:23;;;;;;;;;;;;;;;21.47;31.71;96913.53;10485456;28;2109;-74
2022/03/21 01:15:24;;;;;;;;;;;;;;;21.50;31.54;96908.53;10468847;28;1792;-74
2022/03/21 01:20:24;;;;;;;;;;;;;;;21.49;31.35;96914.06;10489462;28;1824;-74
2022/03/21 01:25:25;;;;;;;;;;;;;;;21.50;31.45;96915.66;10488990;28;1798;-74
2022/03/21 01:30:25;;;;;;;;;;;;;;;21.48;31.18;96917.75;10489445;28;1906;-73
2022/03/21 01:35:25;;;;;;;;;;;;;;;21.49;31.15;96911.44;10474203;28;2246;-74
2022/03/21 01:40:26;;;;;;;;;;;;;;;21.51;30.94;96914.63;10486356;28;1989;-74
2022/03/21 01:45:28;;;;;;;;;;;;;;;21.51;30.65;96918.06;10472229;28;1918;-74
2022/03/21 01:50:29;;;;;;;;;;;;;;;21.52;30.80;96916.19;10470501;28;2065;-73
2022/03/21 01:55:44;;;;;;;;;;;;;;;21.50;30.75;96918.28;10468350;28;1970;-74
2022/03/21 02:00:45;;;;;;;;;;;;;;;21.51;30.48;96910.16;10484867;28;1945;-73
2022/03/21 02:05:49;;;;;;;;;;;;;;;21.50;30.44;96920.94;10464236;28;1921;-75
2022/03/21 02:10:51;;;;;;;;;;;;;;;21.51;30.44;96923.34;10487608;28;1981;-75
2022/03/21 02:15:52;;;;;;;;;;;;;;;21.51;30.59;96925.16;10467415;28;2085;-74
2022/03/21 02:20:53;;;;;;;;;;;;;;;21.51;30.33;96922.53;10479169;28;1928;-74
2022/03/21 02:25:54;;;;;;;;;;;;;;;21.50;30.48;96924.38;10483833;28;1953;-74
2022/03/21 02:30:54;;;;;;;;;;;;;;;21.52;30.18;96927.56;10485352;28;1967;-75
2022/03/21 02:35:54;;;;;;;;;;;;;;;21.54;30.00;96916.75;10449785;28;1914;-75
2022/03/21 02:40:55;;;;;;;;;;;;;;;21.57;30.05;96929.44;10478905;28;1917;-74
2022/03/21 02:46:05;;;;;;;;;;;;;;;21.52;29.84;96927.56;10483204;28;1994;-75
2022/03/21 02:51:07;;;;;;;;;;;;;;;21.55;29.97;96931.53;10451302;28;1967;-76
2022/03/21 02:56:07;;;;;;;;;;;;;;;21.55;30.34;96929.69;10482389;28;2210;-73
2022/03/21 03:01:08;;;;;;;;;;;;;;;21.55;29.98;96927.06;10484766;28;1927;-75
2022/03/21 03:06:08;;;;;;;;;;;;;;;21.55;29.64;96932.34;10446697;28;2028;-76
2022/03/21 03:11:09;;;;;;;;;;;;;;;21.55;30.01;96929.69;10486220;28;1914;-76
2022/03/21 03:16:09;;;;;;;;;;;;;;;21.56;29.71;96927.84;10463484;28;1903;-74
2022/03/21 03:21:10;;;;;;;;;;;;;;;21.60;29.33;96934.19;10464373;28;1910;-75
2022/03/21 03:26:10;;;;;;;;;;;;;;;21.59;29.43;96932.63;10481260;28;1950;-75
2022/03/21 03:31:12;;;;;;;;;;;;;;;21.58;29.49;96933.66;10459111;28;1945;-76
2022/03/21 03:36:13;;;;;;;;;;;;;;;21.59;29.37;96932.63;10482362;28;1994;-75
2022/03/21 03:41:14;;;;;;;;;;;;;;;21.57;29.27;96932.88;10449242;28;2055;-74
2022/03/21 03:46:14;;;;;;;;;;;;;;;21.58;29.28;96947.66;10472760;28;1942;-73
2022/03/21 03:51:14;;;;;;;;;;;;;;;21.60;29.41;96952.66;10464572;28;1981;-74
2022/03/21 03:56:15;;;;;;;;;;;;;;;21.58;29.09;96949.50;10479310;28;1852;-74
2022/03/21 04:01:15;;;;;;;;;;;;;;;21.56;29.30;96946.31;10482683;28;1920;-74
2022/03/21 04:06:17;;;;;;;;;;;;;;;21.58;29.32;96942.38;10483478;28;1921;-74
2022/03/21 04:11:17;;;;;;;;;;;;;;;21.58;29.05;96941.56;10464228;28;2032;-73
2022/03/21 04:16:19;;;;;;;;;;;;;;;21.58;29.14;96952.13;10469592;28;1994;-73
2022/03/21 04:21:21;;;;;;;;;;;;;;;21.57;29.06;96951.34;10490795;28;1867;-75
2022/03/21 04:26:21;;;;;;;;;;;;;;;21.58;28.98;96954.75;10490455;28;1882;-75
2022/03/21 04:31:21;;;;;;;;;;;;;;;21.58;28.86;96958.22;10486322;28;2068;-75
2022/03/21 04:36:22;;;;;;;;;;;;;;;21.57;29.14;96961.91;10470817;28;1926;-75
2022/03/21 04:41:22;;;;;;;;;;;;;;;21.55;29.12;96968.47;10488346;28;1931;-74
2022/03/21 04:46:25;;;;;;;;;;;;;;;21.57;28.81;96969.81;10491554;28;1930;-76
2022/03/21 04:51:25;;;;;;;;;;;;;;;21.55;29.02;96968.47;10467738;28;1981;-73
2022/03/21 04:56:26;;;;;;;;;;;;;;;21.58;28.79;96981.16;10468499;28;1942;-75
2022/03/21 05:01:27;;;;;;;;;;;;;;;21.57;28.66;96987.50;10466963;28;1966;-75
2022/03/21 05:06:27;;;;;;;;;;;;;;;21.55;29.14;96994.84;10485058;28;1977;-74
2022/03/21 05:11:27;;;;;;;;;;;;;;;21.57;28.85;96987.50;10482814;28;1968;-74
2022/03/21 05:16:28;;;;;;;;;;;;;;;21.57;28.85;96998.03;10482921;28;1973;-74
2022/03/21 05:21:28;;;;;;;;;;;;;;;21.55;28.52;96998.31;10457651;28;2032;-75
2022/03/21 05:31:47;;;;;;;;;;;;;;;21.57;28.53;97000.69;10484940;28;1890;-75
2022/03/21 05:36:48;;;;;;;;;;;;;;;21.59;28.72;96999.41;10464611;28;1882;-76
2022/03/21 05:41:51;;;;;;;;;;;;;;;21.57;28.67;97008.59;10486217;28;1953;-76
2022/03/21 05:46:51;;;;;;;;;;;;;;;21.61;28.21;97013.13;10484883;28;2016;-74
2022/03/21 05:51:52;;;;;;;;;;;;;;;21.56;28.28;97005.16;10467160;28;1961;-75
2022/03/21 05:56:53;;;;;;;;;;;;;;;21.57;28.33;97005.97;10484412;28;1875;-75
2022/03/21 06:01:54;;;;;;;;;;;;;;;21.59;28.09;97011.78;10483450;28;1856;-74
2022/03/21 06:06:55;;;;;;;;;;;;;;;21.57;28.24;97019.16;10482138;28;1961;-74
2022/03/21 06:11:55;;;;;;;;;;;;;;;21.59;28.16;97022.34;10465406;28;1892;-75
2022/03/21 06:16:56;;;;;;;;;;;;;;;21.58;28.20;97026.81;10449074;28;1967;-74
2022/03/21 06:21:57;;;;;;;;;;;;;;;21.59;28.21;97036.34;10468809;28;1739;-76
2022/03/21 06:26:57;;;;;;;;;;;;;;;21.58;28.42;97041.84;10488489;28;1969;-76
2022/03/21 06:31:57;;;;;;;;;;;;;;;21.59;28.08;97035.53;10451328;28;1783;-76
2022/03/21 06:36:58;;;;;;;;;;;;;;;21.61;27.96;97041.34;10486095;28;1807;-74
2022/03/21 06:41:58;;;;;;;;;;;;;;;21.59;28.11;97043.44;10463580;28;1839;-75
2022/03/21 06:46:58;;;;;;;;;;;;;;;21.59;28.16;97046.09;10478439;28;1983;-76
2022/03/21 06:51:59;;;;;;;;;;;;;;;21.59;27.92;97049.53;10467556;28;1876;-74
2022/03/21 06:56:59;;;;;;;;;;;;;;;21.61;28.04;97042.16;10457547;28;1897;-73
2022/03/21 07:01:59;;;;;;;;;;;;;;;21.58;28.21;97050.56;10478229;28;1753;-71
2022/03/21 07:07:00;;;;;;;;;;;;;;;21.45;25.70;97058.84;10476442;28;1979;-71
2022/03/21 07:12:00;;;;;;;;;;;;;;;21.20;25.77;97061.22;10474894;28;1803;-69
2022/03/21 07:17:00;;;;;;;;;;;;;;;21.01;24.96;97068.59;10476380;28;1789;-71
2022/03/21 07:22:02;;;;;;;;;;;;;;;20.94;24.74;97070.59;10479394;28;1719;-71
2022/03/21 07:27:03;;;;;;;;;;;;;;;21.21;26.63;97068.06;10484020;28;1999;-73
2022/03/21 07:32:07;;;;;;;;;;;;;;;21.44;26.97;97075.75;10483314;28;1793;-71
2022/03/21 07:37:07;;;;;;;;;;;;;;;21.50;27.09;97087.13;10464996;28;1891;-70
2022/03/21 07:42:09;;;;;;;;;;;;;;;21.53;26.97;97094.56;10477647;28;1865;-70
2022/03/21 07:47:22;;;;;;;;;;;;;;;21.58;27.18;97100.69;10483241;28;1910;-70
2022/03/21 07:52:22;;;;;;;;;;;;;;;21.62;27.34;97090.44;10484578;28;1812;-71
2022/03/21 07:57:23;;;;;;;;;;;;;;;21.62;27.81;97100.97;10490127;28;1886;-70
2022/03/21 08:02:26;;;;;;;;;;;;;;;21.66;27.50;97104.72;10488608;28;1849;-71
2022/03/21 08:07:26;;;;;;;;;;;;;;;21.66;27.87;97099.44;10477649;28;1910;-69
2022/03/21 08:12:27;;;;;;;;;;;;;;;21.69;27.54;97098.97;10482739;28;1797;-69
2022/03/21 08:17:27;;;;;;;;;;;;;;;21.67;27.63;97109.78;10481479;28;1887;-71
2022/03/21 08:22:29;;;;;;;;;;;;;;;21.67;27.77;97107.13;10464311;28;1824;-70
2022/03/21 08:27:31;;;;;;;;;;;;;;;21.71;27.70;97120.63;10466089;28;1951;-70
2022/03/21 08:32:32;;;;;;;;;;;;;;;21.70;27.77;97114.53;10484181;28;1746;-71
2022/03/21 08:37:32;;;;;;;;;;;;;;;21.70;27.72;97119.03;10480210;28;1819;-71
2022/03/21 08:42:33;;;;;;;;;;;;;;;21.70;27.67;97126.97;10484521;28;1817;-70
2022/03/21 08:47:34;;;;;;;;;;;;;;;21.71;27.37;97121.44;10484386;28;1914;-70
2022/03/21 08:52:34;;;;;;;;;;;;;;;21.71;27.61;97125.91;10470370;28;1838;-69
2022/03/21 08:57:35;;;;;;;;;;;;;;;21.76;27.55;97128.59;10471580;28;1729;-71
2022/03/21 09:02:35;;;;;;;;;;;;;;;21.78;27.61;97123.88;10462812;28;1882;-71
2022/03/21 09:07:36;;;;;;;;;;;;;;;21.84;27.53;97115.00;10479515;28;1984;-69
2022/03/21 09:12:36;;;;;;;;;;;;;;;21.80;27.67;97119.91;10481637;28;1717;-70
2022/03/21 09:17:37;;;;;;;;;;;;;;;21.83;27.66;97113.38;10458361;28;1816;-68
2022/03/21 09:22:38;;;;;;;;;;;;;;;21.84;27.99;97117.63;10479827;28;1856;-70
2022/03/21 09:27:42;;;;;;;;;;;;;;;21.89;27.96;97117.66;10478680;28;2094;-69
2022/03/21 09:32:43;;;;;;;;;;;;;;;21.92;27.89;97111.91;10476927;28;1706;-69
2022/03/21 09:37:43;;;;;;;;;;;;;;;21.94;27.94;97109.00;10474466;28;1556;-69
2022/03/21 09:42:44;;;;;;;;;;;;;;;21.95;27.91;97110.63;10459553;28;1878;-70
2022/03/21 09:53:04;;;;;;;;;;;;;;;21.96;26.25;97102.44;10486520;28;1757;-69
2022/03/21 09:58:10;;;;;;;;;;;;;;;22.01;27.63;97107.75;10480286;28;1825;-69
2022/03/21 10:03:11;;;;;;;;;;;;;;;22.03;27.72;97107.53;10479043;28;1967;-71
2022/03/21 10:08:22;;;;;;;;;;;;;;;22.02;27.93;97105.91;10476793;28;1910;-70
2022/03/21 10:13:23;;;;;;;;;;;;;;;22.06;27.78;97102.53;10480407;28;1860;-71
2022/03/21 10:18:24;;;;;;;;;;;;;;;22.04;28.14;97093.25;10458869;28;1829;-70
2022/03/21 10:23:24;;;;;;;;;;;;;;;22.08;27.72;97089.88;10478884;28;1691;-72
2022/03/21 10:28:31;;;;;;;;;;;;;;;22.04;27.56;97093.25;10462033;28;1978;-71
2022/03/21 10:33:31;;;;;;;;;;;;;;;22.04;27.43;97083.50;10476651;28;1805;-73
2022/03/21 10:38:33;;;;;;;;;;;;;;;22.05;27.46;97082.44;10481456;28;1867;-72
2022/03/21 10:43:33;;;;;;;;;;;;;;;22.02;27.54;97088.25;10453746;28;1916;-72
2022/03/21 10:48:35;;;;;;;;;;;;;;;22.02;27.56;97084.78;10466215;28;1914;-74
2022/03/21 10:53:39;;;;;;;;;;;;;;;21.99;27.54;97074.75;10464346;28;1969;-74
2022/03/21 10:58:44;;;;;;;;;;;;;;;21.99;27.61;97080.81;10474583;28;1920;-71
2022/03/21 11:03:45;;;;;;;;;;;;;;;21.99;27.96;97064.97;10479637;28;1809;-72
2022/03/21 11:08:47;;;;;;;;;;;;;;;21.99;28.61;97070.25;10477767;28;2165;-73
2022/03/21 11:13:48;;;;;;;;;;;;;;;22.01;28.85;97068.16;10458995;28;2044;-73
2022/03/21 11:18:49;;;;;;;;;;;;;;;22.05;28.81;97069.22;10459320;28;1846;-72
2022/03/21 11:23:51;;;;;;;;;;;;;;;21.96;28.77;97070.75;10469270;28;2063;-71
2022/03/21 11:29:04;;;;;;;;;;;;;;;21.93;28.42;97058.03;10490640;28;1901;-73
2022/03/21 11:34:13;;;;;;;;;;;;;;;21.91;28.44;97054.09;10486151;28;2221;-72
2022/03/21 11:39:15;;;;;;;;;;;;;;;21.91;28.55;97051.44;10489790;28;1833;-72
2022/03/21 11:44:15;;;;;;;;;;;;;;;21.86;28.60;97041.63;10473299;28;1666;-72
2022/03/21 11:49:22;;;;;;;;;;;;;;;21.86;28.48;97039.75;10471021;28;1973;-71
2022/03/21 11:54:32;;;;;;;;;;;;;;;21.81;28.59;97044.19;10481892;28;2125;-72
2022/03/21 11:59:33;;;;;;;;;;;;;;;21.80;28.63;97029.41;10475518;28;2013;-73
2022/03/21 12:04:33;;;;;;;;;;;;;;;21.81;28.46;97023.06;10482492;28;2172;-72
2022/03/21 12:09:44;;;;;;;;;;;;;;;21.77;28.42;97020.13;10460925;28;2196;-72
2022/03/21 12:14:45;;;;;;;;;;;;;;;21.71;26.00;97015.06;10449756;28;1762;-73
2022/03/21 12:24:49;;;;;;;;;;;;;;;21.64;26.10;97009.97;10481511;28;1773;-72
2022/03/21 12:29:49;;;;;;;;;;;;;;;21.53;25.93;96997.75;10463556;28;1913;-70
2022/03/21 12:34:50;;;;;;;;;;;;;;;21.48;24.50;96994.25;10486249;28;1805;-71
2022/03/21 12:39:50;;;;;;;;;;;;;;;21.51;25.05;96993.78;10488260;28;1861;-72
2022/03/21 12:44:51;;;;;;;;;;;;;;;21.45;24.54;96990.25;10484186;28;1750;-71
2022/03/21 12:49:51;;;;;;;;;;;;;;;21.44;24.52;96988.69;10489689;28;1910;-71
2022/03/21 12:54:53;;;;;;;;;;;;;;;21.46;24.78;96986.59;10481370;28;1967;-70
2022/03/21 13:00:13;;;;;;;;;;;;;;;21.40;24.68;96981.50;10484251;28;1817;-72
2022/03/21 13:10:32;;;;;;;;;;;;;;;21.38;23.67;96973.06;10469206;28;2143;-71
2022/03/21 13:15:35;;;;;;;;;;;;;;;21.33;23.52;96975.66;10484216;28;1778;-70
2022/03/21 13:20:43;;;;;;;;;;;;;;;21.41;23.41;96972.56;10481198;28;1867;-71
2022/03/21 13:25:43;;;;;;;;;;;;;;;21.44;23.47;96964.94;10482619;28;1820;-72
2022/03/21 13:30:57;;;;;;;;;;;;;;;21.38;23.02;96963.31;10464442;28;1914;-72
2022/03/21 13:35:59;;;;;;;;;;;;;;;21.33;21.22;96954.56;10481653;28;1861;-70
2022/03/21 13:41:00;;;;;;;;;;;;;;;21.43;22.63;96955.41;10465856;28;1789;-71
2022/03/21 13:46:00;;;;;;;;;;;;;;;21.34;21.65;96954.31;10478161;28;1868;-71
2022/03/21 13:51:07;;;;;;;;;;;;;;;21.27;21.28;96945.00;10480183;28;1906;-70
2022/03/21 13:56:08;;;;;;;;;;;;;;;21.34;22.07;96946.38;10485015;28;1862;-71
2022/03/21 14:01:21;;;;;;;;;;;;;;;21.40;22.05;96939.31;10479337;28;1736;-70
2022/03/21 14:06:22;;;;;;;;;;;;;;;21.30;20.68;96934.75;10482168;28;1789;-72
2022/03/21 14:11:22;;;;;;;;;;;;;;;21.22;20.57;96926.47;10481682;28;1910;-73
2022/03/21 14:16:25;;;;;;;;;;;;;;;21.21;20.37;96928.31;10480392;28;1824;-72
2022/03/21 14:21:29;;;;;;;;;;;;;;;21.34;21.58;96924.47;10471080;28;1876;-70
2022/03/21 14:26:30;;;;;;;;;;;;;;;21.30;21.12;96923.38;10487883;28;1829;-72
2022/03/21 14:31:31;;;;;;;;;;;;;;;21.37;21.29;96914.22;10481946;28;1981;-70
2022/03/21 14:36:31;;;;;;;;;;;;;;;21.35;21.31;96915.53;10482823;28;1966;-70
2022/03/21 14:41:31;;;;;;;;;;;;;;;21.27;20.52;96911.50;10481417;28;1912;-72
2022/03/21 14:46:32;;;;;;;;;;;;;;;21.14;20.21;96911.91;10484690;28;1876;-70
2022/03/21 14:51:34;;;;;;;;;;;;;;;21.15;20.41;96902.94;10477556;28;1973;-71
2022/03/21 14:56:34;;;;;;;;;;;;;;;21.21;20.85;96893.22;10480316;28;1805;-68
2022/03/21 15:01:34;;;;;;;;;;;;;;;21.17;20.68;96894.78;10475826;28;1849;-69
2022/03/21 15:06:35;;;;;;;;;;;;;;;21.20;20.92;96896.94;10463783;28;1892;-71
2022/03/21 15:11:36;;;;;;;;;;;;;;;21.21;20.90;96887.97;10478340;28;1981;-72
2022/03/21 15:16:40;;;;;;;;;;;;;;;21.20;20.59;96886.38;10461263;28;1795;-72
2022/03/21 15:21:40;;;;;;;;;;;;;;;21.15;20.55;96891.59;10474707;28;1943;-72
2022/03/21 15:26:41;;;;;;;;;;;;;;;21.12;20.94;96885.00;10477946;28;1907;-71
2022/03/21 15:31:41;;;;;;;;;;;;;;;21.14;20.88;96880.28;10483099;28;1909;-71
2022/03/21 15:42:00;;;;;;;;;;;;;;;21.13;21.24;96885.78;10476234;28;1899;-72
2022/03/21 15:47:01;;;;;;;;;;;;;;;21.12;21.39;96886.84;10481439;28;1981;-70
2022/03/21 15:52:02;;;;;;;;;;;;;;;21.13;21.73;96891.06;10476815;28;1802;-74
2022/03/21 15:57:03;;;;;;;;;;;;;;;21.13;21.55;96885.78;10476690;28;1812;-72
2022/03/21 16:02:03;;;;;;;;;;;;;;;21.05;21.54;96882.56;10471602;28;2189;-71
2022/03/21 16:07:04;;;;;;;;;;;;;;;20.99;21.61;96883.53;10473182;28;2015;-71
2022/03/21 16:12:05;;;;;;;;;;;;;;;21.00;21.70;96877.19;10482425;28;1903;-72
2022/03/21 16:17:06;;;;;;;;;;;;;;;20.99;21.94;96875.63;10477959;28;1975;-69
2022/03/21 16:22:07;;;;;;;;;;;;;;;20.90;21.86;96874.47;10481145;28;1922;-72
2022/03/21 16:27:07;;;;;;;;;;;;;;;20.83;21.84;96881.78;10465857;28;1902;-71
2022/03/21 16:32:08;;;;;;;;;;;;;;;20.95;22.71;96874.53;10461595;28;1934;-74
2022/03/21 16:37:09;;;;;;;;;;;;;;;20.97;22.92;96882.19;10485872;28;1950;-71
2022/03/21 16:42:09;;;;;;;;;;;;;;;20.98;22.88;96871.38;10469960;28;1928;-70
2022/03/21 16:47:09;;;;;;;;;;;;;;;21.33;24.63;96878.06;10482911;28;2089;-72
2022/03/21 16:52:11;;;;;;;;;;;;;;;21.52;24.76;96872.16;10469915;28;1722;-73
2022/03/21 16:57:12;;;;;;;;;;;;;;;21.63;25.08;96883.56;10484207;28;1982;-72
2022/03/21 17:02:13;;;;;;;;;;;;;;;21.69;25.26;96882.56;10475498;28;1780;-71
2022/03/21 17:07:14;;;;;;;;;;;;;;;21.69;25.19;96883.38;10485157;28;1913;-70
2022/03/21 17:12:14;;;;;;;;;;;;;;;21.75;25.17;96884.19;10466283;28;1469;-71
2022/03/21 17:17:14;;;;;;;;;;;;;;;21.75;25.41;96892.91;10463055;28;1899;-70
2022/03/21 17:27:34;;;;;;;;;;;;;;;21.78;25.36;96891.63;10469971;28;1974;-70
2022/03/21 17:32:35;;;;;;;;;;;;;;;21.76;25.65;96901.63;10477053;28;1773;-71
2022/03/21 17:37:36;;;;;;;;;;;;;;;21.79;25.86;96901.09;10477148;28;1832;-69
2022/03/21 17:42:37;;;;;;;;;;;;;;;21.83;25.97;96902.22;10470377;28;1765;-70
2022/03/21 17:47:37;;;;;;;;;;;;;;;21.89;25.84;96901.19;10477417;28;1910;-69
2022/03/21 17:52:38;;;;;;;;;;;;;;;21.81;26.21;96906.94;10469578;28;1824;-71
2022/03/21 18:03:03;;;;;;;;;;;;;;;21.87;26.78;96913.88;10433798;28;1812;-54
2022/03/21 18:08:03;;;;;;;;;;;;;;;21.90;26.94;96920.47;10408482;28;1975;-50
2022/03/21 18:13:04;;;;;;;;;;;;;;;21.91;26.87;96903.63;10431228;28;1798;-49
2022/03/21 18:18:04;;;;;;;;;;;;;;;21.96;27.37;96907.06;10422767;28;1874;-53
2022/03/21 18:23:04;;;;;;;;;;;;;;;22.00;27.09;96910.78;10433261;28;1957;-55
2022/03/21 18:28:05;;;;;;;;;;;;;;;21.93;27.46;96912.84;10483493;22;2778;-40
2022/03/21 18:33:05;;;;;;;;;;;;;;;21.92;27.77;96916.56;10526394;28;1827;-41
2022/03/21 18:38:05;;;;;;;;;;;;;;;21.88;27.96;96906.75;10464670;28;1825;-41
2022/03/21 18:43:06;;;;;;;;;;;;;;;21.77;27.58;96919.03;10479064;28;1933;-40
2022/03/21 18:48:07;;;;;;;;;;;;;;;21.71;27.63;96915.56;10479615;28;1985;-40
2022/03/21 18:53:08;;;;;;;;;;;;;;;21.67;27.61;96914.50;10483938;28;1829;-38
2022/03/21 18:58:08;;;;;;;;;;;;;;;21.62;27.80;96918.91;10471184;28;1733;-40
2022/03/21 19:03:09;;;;;;;;;;;;;;;21.60;27.58;96919.19;10472215;28;1808;-41
2022/03/21 19:08:10;;;;;;;;;;;;;;;21.61;27.53;96919.97;10475290;28;1917;-43
2022/03/21 19:13:17;;;;;;;;;;;;;;;21.58;27.44;96925.75;10468900;28;1840;-38
2022/03/21 19:18:17;;;;;;;;;;;;;;;21.57;27.41;96930.25;10464113;28;1781;-40
2022/03/21 19:23:18;;;;;;;;;;;;;;;21.59;27.62;96924.72;10477763;28;1718;-40
2022/03/21 19:28:18;;;;;;;;;;;;;;;21.59;27.45;96928.16;10470580;28;2224;-43
2022/03/21 19:33:18;;;;;;;;;;;;;;;21.64;27.98;96925.53;10476391;28;1986;-39
2022/03/21 19:38:19;;;;;;;;;;;;;;;21.69;29.21;96922.94;10483116;28;2109;-40
2022/03/21 19:43:19;;;;;;;;;;;;;;;21.73;29.76;96933.78;10477796;28;2055;-41
2022/03/21 19:48:19;;;;;;;;;;;;;;;21.73;30.95;96929.31;10485819;28;1981;-42
2022/03/21 19:53:20;;;;;;;;;;;;;;;21.75;31.43;96935.13;10483922;28;1851;-42
2022/03/21 19:58:20;;;;;;;;;;;;;;;21.78;31.60;96925.94;10479253;28;1772;-40
2022/03/21 20:03:20;;;;;;;;;;;;;;;21.74;31.59;96930.88;10478169;28;1819;-39
2022/03/21 20:08:21;;;;;;;;;;;;;;;21.68;31.67;96928.47;10480479;28;1910;-40
2022/03/21 20:13:21;;;;;;;;;;;;;;;21.67;31.29;96934.81;10481090;28;1804;-41
2022/03/21 20:18:22;;;;;;;;;;;;;;;21.65;31.05;96936.91;10483850;28;1879;-43
2022/03/21 20:23:23;;;;;;;;;;;;;;;21.61;31.29;96941.88;10482800;28;2111;-40
2022/03/21 20:28:24;;;;;;;;;;;;;;;21.61;31.49;96935.81;10475272;28;1905;-42
2022/03/21 20:33:24;;;;;;;;;;;;;;;21.57;31.30;96930.25;10480444;28;1860;-45
2022/03/21 20:38:24;;;;;;;;;;;;;;;21.59;31.30;96928.16;10484588;28;1851;-40
2022/03/21 20:43:25;;;;;;;;;;;;;;;21.58;31.60;96938.94;10483742;28;1761;-39
2022/03/21 20:48:25;;;;;;;;;;;;;;;21.60;31.55;96940.28;10482454;28;1945;-39
2022/03/21 20:53:26;;;;;;;;;;;;;;;21.58;31.60;96933.66;10482105;28;1740;-42
2022/03/21 20:58:26;;;;;;;;;;;;;;;21.58;31.80;96946.84;10473175;28;1832;-43
2022/03/21 21:03:26;;;;;;;;;;;;;;;21.61;31.45;96949.00;10477396;28;2152;-41
2022/03/21 21:08:26;;;;;;;;;;;;;;;21.59;31.25;96936.06;10479496;28;1981;-42
2022/03/21 21:13:27;;;;;;;;;;;;;;;21.61;31.24;96938.44;10478114;28;1772;-39
2022/03/21 21:18:28;;;;;;;;;;;;;;;21.59;31.52;96937.91;10477459;28;1678;-43
2022/03/21 21:23:29;;;;;;;;;;;;;;;21.61;31.33;96933.16;10471201;28;1693;-47
2022/03/21 21:28:30;;;;;;;;;;;;;;;21.63;31.03;96933.72;10472930;28;1978;-41
2022/03/21 21:33:30;;;;;;;;;;;;;;;21.63;31.34;96939.78;10474833;28;1910;-42
2022/03/21 21:38:30;;;;;;;;;;;;;;;21.65;30.98;96939.53;10475980;28;1833;-39
2022/03/21 21:43:31;;;;;;;;;;;;;;;21.62;30.93;96938.19;10474563;28;1843;-38
2022/03/21 21:48:31;;;;;;;;;;;;;;;21.60;30.58;96945.56;10474722;28;1921;-38
2022/03/21 21:53:34;;;;;;;;;;;;;;;21.63;30.51;96939.00;10479671;28;1937;-38
2022/03/21 21:58:34;;;;;;;;;;;;;;;21.62;30.59;96940.03;10474533;28;1828;-40
2022/03/21 22:03:37;;;;;;;;;;;;;;;21.63;30.39;96928.44;10471136;28;1801;-39
2022/03/21 22:08:37;;;;;;;;;;;;;;;21.62;30.46;96929.47;10474738;28;2032;-42
2022/03/21 22:13:38;;;;;;;;;;;;;;;21.64;30.30;96938.72;10479774;28;1988;-39
2022/03/21 22:18:39;;;;;;;;;;;;;;;21.62;30.12;96938.19;10480765;28;2020;-43
2022/03/21 22:23:40;;;;;;;;;;;;;;;21.64;30.13;96933.44;10477886;28;1774;-43
2022/03/21 22:28:41;;;;;;;;;;;;;;;21.63;30.04;96936.34;10477318;28;1909;-46
2022/03/21 22:33:41;;;;;;;;;;;;;;;21.62;30.08;96927.63;10480019;28;1883;-42
2022/03/21 22:38:41;;;;;;;;;;;;;;;21.65;29.94;96932.41;10476005;28;2068;-41
2022/03/21 22:49:01;;;;;;;;;;;;;;;21.65;29.58;96921.88;10475694;28;1977;-44
2022/03/21 22:54:02;;;;;;;;;;;;;;;21.65;29.79;96928.97;10478990;28;1837;-39
2022/03/21 22:59:04;;;;;;;;;;;;;;;21.64;29.35;96924.72;10479788;28;1965;-42
2022/03/21 23:04:09;;;;;;;;;;;;;;;21.67;29.56;96935.59;10475974;28;1761;-39
2022/03/21 23:09:09;;;;;;;;;;;;;;;21.70;29.39;96939.59;10476558;28;1964;-37
2022/03/21 23:14:11;;;;;;;;;;;;;;;21.63;29.11;96937.16;10477841;28;1892;-39
2022/03/21 23:19:12;;;;;;;;;;;;;;;21.67;29.10;96940.06;10473099;28;1820;-38
2022/03/21 23:24:12;;;;;;;;;;;;;;;21.66;29.23;96941.09;10482444;28;1935;-42
2022/03/21 23:29:13;;;;;;;;;;;;;;;21.65;29.08;96931.63;10477882;28;2019;-42
2022/03/21 23:34:16;;;;;;;;;;;;;;;21.66;28.95;96936.63;10481455;28;1979;-39
2022/03/21 23:39:17;;;;;;;;;;;;;;;21.68;28.71;96937.19;10475804;28;1893;-39
2022/03/21 23:44:18;;;;;;;;;;;;;;;21.64;28.84;96936.09;10477687;28;1764;-38
2022/03/21 23:49:18;;;;;;;;;;;;;;;21.67;28.71;96940.06;10468181;28;1967;-39
2022/03/21 23:54:18;;;;;;;;;;;;;;;21.65;28.75;96944.81;10474813;28;1944;-42
2022/03/21 23:59:19;;;;;;;;;;;;;;;21.66;28.55;96944.56;10455102;28;2239;-38
